Time;durP1;ratioP1;P1;durP2;ratioP2;P2;SDS_P1;SDS_P2;PMS_P1;PMS_P2;Temp;Humidity;BMP_temperature;BMP_pressure;BME280_temperature;BME280_humidity;BME280_pressure;Samples;Min_cycle;Max_cycle;Signal;HPM_P1;HPM_P2
2022/01/20 00:03:22;;;;;;;34.90;17.10;;;;;;;-5.49;69.74;101393.66;107278;1250;60224;-75
2022/01/20 00:27:52;;;;;;;29.70;16.90;;;;;;;-5.67;71.26;101354.73;107494;1248;69722;-76
2022/01/20 00:38:24;;;;;;;30.70;16.00;;;;;;;-5.73;71.29;101335.52;107144;1250;72892;-81
2022/01/20 00:40:54;;;;;;;27.40;15.30;;;;;;;-5.75;71.12;101331.94;107174;1248;72798;-80
2022/01/20 00:43:23;;;;;;;33.90;17.20;;;;;;;-5.78;70.57;101331.77;107322;1250;70882;-78
2022/01/20 00:45:52;;;;;;;36.00;17.90;;;;;;;-5.78;71.44;101321.41;107457;1250;72726;-78
2022/01/20 00:48:23;;;;;;;35.20;16.50;;;;;;;-5.78;70.88;101314.96;107187;1250;59692;-77
2022/01/20 00:50:52;;;;;;;34.60;16.60;;;;;;;-5.79;71.15;101312.58;107169;1250;62412;-77
2022/01/20 00:53:21;;;;;;;33.90;16.70;;;;;;;-5.78;71.49;101303.42;107382;1250;73891;-78
2022/01/20 00:55:50;;;;;;;33.70;16.40;;;;;;;-5.76;72.24;101298.51;107419;1249;71851;-78
2022/01/20 00:58:19;;;;;;;30.00;15.60;;;;;;;-5.76;72.19;101293.42;107071;1250;70121;-78
2022/01/20 01:00:48;;;;;;;29.50;15.00;;;;;;;-5.78;71.96;101282.39;107504;1249;74621;-79
2022/01/20 01:03:18;;;;;;;31.80;17.10;;;;;;;-5.79;72.30;101276.95;107292;1250;61736;-77
2022/01/20 01:06:12;;;;;;;34.70;16.60;;;;;;;-5.83;72.14;101269.98;107288;1250;61290;-79
2022/01/20 01:08:41;;;;;;;34.60;16.20;;;;;;;-5.88;72.26;101276.08;107294;1250;72397;-78
2022/01/20 01:11:10;;;;;;;33.80;16.10;;;;;;;-5.90;71.95;101268.43;107285;1250;71522;-81
2022/01/20 01:13:39;;;;;;;35.80;15.70;;;;;;;-5.91;72.77;101265.38;107445;1250;67858;-77
2022/01/20 01:16:10;;;;;;;31.60;16.00;;;;;;;-5.91;72.85;101262.34;107354;1250;72299;-77
2022/01/20 01:21:44;;;;;;;33.20;17.10;;;;;;;-5.89;71.99;101261.48;107412;1250;60076;-77
2022/01/20 01:24:13;;;;;;;34.40;18.40;;;;;;;-5.90;72.04;101258.76;107184;1250;73599;-79
2022/01/20 01:26:42;;;;;;;34.00;16.50;;;;;;;-5.89;72.91;101248.77;107149;1250;72049;-77
2022/01/20 01:29:32;;;;;;;34.60;17.40;;;;;;;-5.91;72.09;101243.50;107164;1250;69755;-76
2022/01/20 01:32:00;;;;;;;32.30;17.10;;;;;;;-5.91;72.39;101237.55;107356;1249;72844;-78
2022/01/20 01:34:31;;;;;;;34.60;16.60;;;;;;;-5.92;72.83;101230.45;107196;1250;59158;-76
2022/01/20 01:39:30;;;;;;;42.80;18.80;;;;;;;-5.96;70.74;101220.59;107340;1250;73515;-77
2022/01/20 01:42:00;;;;;;;38.60;18.40;;;;;;;-5.98;71.60;101209.73;107169;1251;69890;-75
2022/01/20 01:44:30;;;;;;;40.00;18.90;;;;;;;-5.98;73.16;101210.42;107186;1250;68896;-77
2022/01/20 01:47:02;;;;;;;43.70;19.00;;;;;;;-5.99;72.81;101204.98;107326;1250;74288;-77
2022/01/20 01:49:31;;;;;;;39.00;18.10;;;;;;;-6.00;71.67;101204.48;107324;1250;60219;-77
2022/01/20 01:52:00;;;;;;;46.20;18.90;;;;;;;-5.97;72.16;101199.91;107335;1250;58905;-77
2022/01/20 01:54:30;;;;;;;40.70;19.10;;;;;;;-5.96;71.56;101190.25;107480;1250;72588;-77
2022/01/20 01:57:05;;;;;;;37.60;18.60;;;;;;;-5.92;72.73;101186.16;107518;1248;72195;-78
2022/01/20 01:59:36;;;;;;;41.10;20.20;;;;;;;-5.88;72.83;101181.93;107278;1250;68389;-83
2022/01/20 02:02:17;;;;;;;40.50;20.10;;;;;;;-5.86;72.71;101177.17;107459;1250;70186;-84
2022/01/20 02:04:48;;;;;;;44.20;20.10;;;;;;;-5.86;71.98;101173.95;107282;1250;60799;-80
2022/01/20 02:18:46;;;;;;;36.00;20.50;;;;;;;-5.58;75.21;101152.79;107454;1250;71233;-81
2022/01/20 02:21:30;;;;;;;42.00;20.50;;;;;;;-5.56;74.39;101147.19;109128;1250;59543;-78
2022/01/20 02:24:01;;;;;;;45.70;19.80;;;;;;;-5.55;74.04;101139.38;108198;1250;60940;-78
2022/01/20 02:26:30;;;;;;;43.30;21.10;;;;;;;-5.56;73.17;101132.42;107736;1250;72963;-79
2022/01/20 02:28:59;;;;;;;43.60;20.60;;;;;;;-5.59;73.71;101129.54;107294;1251;71067;-81
2022/01/20 02:31:29;;;;;;;38.40;18.00;;;;;;;-5.64;73.18;101119.86;107445;1250;70964;-77
2022/01/20 02:33:58;;;;;;;38.30;17.70;;;;;;;-5.61;74.99;101115.80;107337;1251;72370;-81
2022/01/20 02:36:29;;;;;;;44.40;20.70;;;;;;;-5.52;75.03;101110.52;107298;1251;62174;-71
2022/01/20 02:39:10;;;;;;;42.30;20.70;;;;;;;-5.47;74.56;101109.34;107374;1250;59554;-78
2022/01/20 02:44:53;;;;;;;37.10;19.10;;;;;;;-5.43;74.94;101102.73;107295;1251;72587;-76
2022/01/20 02:47:32;;;;;;;38.80;20.80;;;;;;;-5.44;74.45;101093.73;107081;1251;70235;-78
2022/01/20 02:50:01;;;;;;;40.60;19.60;;;;;;;-5.46;74.39;101091.17;107306;1253;73814;-79
2022/01/20 02:52:33;;;;;;;40.20;19.90;;;;;;;-5.49;74.41;101088.14;107246;1250;62842;-79
2022/01/20 02:55:03;;;;;;;36.80;19.70;;;;;;;-5.51;74.64;101089.30;107269;1250;60455;-77
2022/01/20 02:57:32;;;;;;;32.90;17.40;;;;;;;-5.50;74.94;101084.56;107271;1253;69903;-78
2022/01/20 03:00:01;;;;;;;40.90;18.80;;;;;;;-5.51;74.28;101077.60;107203;1253;69553;-77
2022/01/20 03:02:30;;;;;;;34.20;19.20;;;;;;;-5.52;74.91;101075.40;107309;1251;67966;-75
2022/01/20 03:04:59;;;;;;;37.90;19.30;;;;;;;-5.54;74.63;101074.72;107202;1253;73929;-78
2022/01/20 03:07:32;;;;;;;37.60;19.00;;;;;;;-5.55;74.23;101069.12;107302;1250;60015;-76
2022/01/20 03:10:01;;;;;;;41.40;18.60;;;;;;;-5.56;74.29;101068.09;107213;1253;61368;-77
2022/01/20 03:12:30;;;;;;;36.90;18.10;;;;;;;-5.61;74.21;101060.46;107310;1250;74489;-74
2022/01/20 03:15:03;;;;;;;32.80;17.30;;;;;;;-5.66;73.96;101051.98;106986;1253;71600;-76
2022/01/20 03:17:32;;;;;;;39.00;18.40;;;;;;;-5.73;73.96;101047.05;107252;1250;67739;-77
2022/01/20 03:20:04;;;;;;;31.60;17.70;;;;;;;-5.78;74.23;101048.59;107108;1253;73289;-78
2022/01/20 03:22:34;;;;;;;34.80;16.50;;;;;;;-5.84;74.08;101045.02;107240;1250;59436;-77
2022/01/20 03:25:03;;;;;;;32.80;16.60;;;;;;;-5.91;74.88;101032.83;107275;1252;61298;-76
2022/01/20 03:27:33;;;;;;;34.40;17.10;;;;;;;-5.95;75.35;101037.42;107300;1250;73323;-78
2022/01/20 03:30:03;;;;;;;28.20;16.00;;;;;;;-5.99;74.93;101037.60;107050;1253;73045;-77
2022/01/20 03:32:34;;;;;;;32.60;15.90;;;;;;;-6.04;74.62;101036.23;106976;1250;68878;-79
2022/01/20 03:35:07;;;;;;;31.60;16.40;;;;;;;-6.09;74.41;101031.30;107170;1252;75674;-79
2022/01/20 03:37:37;;;;;;;34.30;15.60;;;;;;;-6.15;73.15;101025.71;107269;1251;63266;-77
2022/01/20 03:40:09;;;;;;;33.60;16.80;;;;;;;-6.19;73.12;101022.48;107254;1250;60069;-78
2022/01/20 03:42:38;;;;;;;33.70;16.60;;;;;;;-6.21;73.54;101022.64;107266;1250;72848;-78
2022/01/20 03:45:08;;;;;;;32.20;16.90;;;;;;;-6.24;73.58;101016.20;107415;1251;72408;-78
2022/01/20 03:47:37;;;;;;;31.00;16.10;;;;;;;-6.26;73.46;101018.58;107350;1250;70038;-76
2022/01/20 03:50:10;;;;;;;31.80;16.10;;;;;;;-6.27;73.68;101014.52;107561;1250;71152;-76
2022/01/20 03:52:39;;;;;;;;;;;;;;;-6.27;73.88;101005.52;107636;1250;58986;-78
2022/01/20 03:55:09;;;;;;;29.20;14.30;;;;;;;-6.26;74.10;101003.98;107540;1251;59566;-76
2022/01/20 03:58:37;;;;;;;28.50;13.30;;;;;;;-6.25;72.00;101006.20;107352;1250;73977;-75
2022/01/20 04:01:08;;;;;;;34.60;13.30;;;;;;;-6.23;73.68;101003.33;107365;1250;70921;-74
2022/01/20 04:03:53;;;;;;;26.60;14.50;;;;;;;-6.23;72.65;100994.52;108045;1250;70901;-80
2022/01/20 04:06:30;;;;;;;24.70;13.00;;;;;;;-6.22;72.03;100993.83;108469;1250;74669;-72
2022/01/20 04:09:00;;;;;;;28.30;13.20;;;;;;;-6.21;72.18;100996.20;108130;1251;61273;-79
2022/01/20 04:11:30;;;;;;;27.10;13.00;;;;;;;-6.17;72.26;100998.75;107765;1250;58473;-77
2022/01/20 04:14:02;;;;;;;21.60;11.40;;;;;;;-6.12;72.37;100997.73;107750;1250;71631;-79
2022/01/20 04:16:53;;;;;;;32.50;14.50;;;;;;;-6.08;72.48;100996.38;107853;1248;72552;-70
2022/01/20 04:19:23;;;;;;;28.30;14.80;;;;;;;-6.02;72.18;100996.04;108387;1249;68301;-80
2022/01/20 04:21:52;;;;;;;25.30;12.00;;;;;;;-6.00;72.00;100998.08;107891;1248;72704;-78
2022/01/20 04:24:22;;;;;;;38.80;16.30;;;;;;;-5.96;72.96;100997.06;108058;1251;60084;-78
2022/01/20 04:26:51;;;;;;;34.90;16.00;;;;;;;-5.93;72.78;100990.61;107940;1248;60989;-74
2022/01/20 04:29:20;;;;;;;27.60;14.10;;;;;;;-5.91;73.32;100984.31;108043;1250;71842;-77
2022/01/20 04:31:50;;;;;;;29.90;14.70;;;;;;;-5.90;72.94;100981.42;108221;1248;70751;-77
2022/01/20 04:34:20;;;;;;;29.30;14.10;;;;;;;-5.87;73.30;100980.58;108319;1248;70959;-79
2022/01/20 04:36:53;;;;;;;28.10;14.90;;;;;;;-5.86;73.43;100975.30;108085;1248;73553;-78
2022/01/20 04:39:28;;;;;;;33.90;13.70;;;;;;;-5.82;74.57;100969.88;108092;1248;61277;-77
2022/01/20 04:41:57;;;;;;;34.00;14.00;;;;;;;-5.77;74.01;100962.41;108130;1248;60814;-78
2022/01/20 04:44:36;;;;;;;31.90;13.30;;;;;;;-5.64;74.44;100960.52;107988;1251;74668;-77
2022/01/20 04:48:00;;;;;;;;;;;;;;;;;;;;;
2022/01/20 04:58:40;;;;;;;38.20;19.00;;;;;;;-5.55;74.14;100933.86;107685;1248;61209;-78
2022/01/20 05:01:10;;;;;;;39.30;19.10;;;;;;;-5.56;74.06;100927.56;107535;1249;74656;-80
2022/01/20 05:03:44;;;;;;;37.30;18.80;;;;;;;-5.55;74.68;100926.05;107574;1250;70216;-76
2022/01/20 05:06:39;;;;;;;40.40;19.60;;;;;;;-5.58;73.89;100922.83;107519;1251;69035;-77
2022/01/20 05:09:17;;;;;;;39.50;21.50;;;;;;;-5.61;73.48;100926.41;107787;1248;74301;-78
2022/01/20 05:11:56;;;;;;;39.50;19.70;;;;;;;-5.61;74.10;100925.39;108543;1250;59651;-79
2022/01/20 05:14:29;;;;;;;35.10;17.00;;;;;;;-5.59;74.21;100931.32;109052;1247;59109;-79
2022/01/20 05:16:59;;;;;;;29.30;14.30;;;;;;;-5.52;73.99;100928.58;108262;1251;72650;-77
2022/01/20 05:19:32;;;;;;;35.40;16.20;;;;;;;-5.47;73.94;100929.92;107618;1251;72091;-78
2022/01/20 05:22:01;;;;;;;32.40;15.20;;;;;;;-5.48;73.76;100921.10;107690;1248;69847;-78
2022/01/20 05:24:36;;;;;;;34.60;16.60;;;;;;;-5.49;73.32;100922.65;107702;1247;75272;-77
2022/01/20 05:27:06;;;;;;;37.80;17.20;;;;;;;-5.47;74.04;100917.18;107607;1251;62254;-79
2022/01/20 05:29:35;;;;;;;31.30;16.50;;;;;;;-5.47;73.64;100914.48;107738;1247;62158;-78
2022/01/20 05:32:06;;;;;;;36.00;19.50;;;;;;;-5.45;73.82;100914.46;107924;1251;71445;-80
2022/01/20 05:34:35;;;;;;;30.20;16.40;;;;;;;-5.43;74.13;100908.88;107942;1250;69623;-81
2022/01/20 05:37:05;;;;;;;30.60;15.40;;;;;;;-5.43;73.32;100909.20;107917;1247;69786;-80
2022/01/20 05:39:35;;;;;;;35.20;16.30;;;;;;;-5.45;73.18;100902.42;107630;1251;71710;-77
2022/01/20 05:42:05;;;;;;;35.00;14.90;;;;;;;-5.43;73.22;100897.83;107500;1251;59569;-79
2022/01/20 05:44:44;;;;;;;26.40;14.30;;;;;;;-5.36;73.18;100896.95;107983;1250;60874;-78
2022/01/20 05:47:14;;;;;;;24.60;12.70;;;;;;;-5.36;72.29;100901.02;108077;1251;72551;-80
2022/01/20 05:50:37;;;;;;;27.00;14.90;;;;;;;-5.40;72.31;100893.58;108229;1250;71507;-79
2022/01/20 05:53:07;;;;;;;31.30;14.80;;;;;;;-5.45;72.12;100898.52;108231;1250;68703;-79
2022/01/20 05:55:42;;;;;;;35.80;17.50;;;;;;;-5.49;72.49;100897.19;107868;1247;73319;-79
2022/01/20 05:58:11;;;;;;;33.10;16.20;;;;;;;-5.47;72.76;100903.95;107732;1250;62772;-80
2022/01/20 06:00:40;;;;;;;31.90;15.70;;;;;;;-5.46;73.08;100900.90;107854;1248;60155;-79
2022/01/20 06:05:59;;;;;;;35.60;16.30;;;;;;;-5.42;72.51;100890.17;107838;1248;72932;-78
2022/01/20 06:08:28;;;;;;;28.40;13.20;;;;;;;-5.39;72.32;100893.74;107687;1250;71164;-79
2022/01/20 06:10:57;;;;;;;26.20;13.30;;;;;;;-5.39;72.48;100898.15;107681;1250;73361;-79
2022/01/20 06:13:27;;;;;;;30.70;15.50;;;;;;;-5.34;74.04;100902.55;107780;1248;60480;-77
2022/01/20 06:15:58;;;;;;;27.70;14.50;;;;;;;-5.22;74.37;100902.66;107593;1251;60645;-80
2022/01/20 06:18:29;;;;;;;31.10;14.80;;;;;;;-5.15;72.62;100890.91;107959;1251;72295;-77
2022/01/20 06:20:58;;;;;;;31.40;15.90;;;;;;;-5.10;72.12;100890.04;107950;1250;69555;-79
2022/01/20 06:23:29;;;;;;;33.90;14.20;;;;;;;-5.11;71.39;100890.89;107875;1250;70952;-74
2022/01/20 06:26:04;;;;;;;31.20;14.20;;;;;;;-5.10;72.02;100883.77;107797;1251;74037;-78
2022/01/20 06:28:40;;;;;;;31.10;14.10;;;;;;;-5.11;70.71;100878.83;107697;1250;61778;-73
2022/01/20 06:31:11;;;;;;;33.90;14.50;;;;;;;-5.12;71.05;100876.13;108143;1247;61836;-79
2022/01/20 06:33:41;;;;;;;31.10;14.20;;;;;;;-5.09;70.79;100873.40;107489;1251;73264;-70
2022/01/20 06:36:10;;;;;;;27.60;13.10;;;;;;;-5.09;70.78;100873.56;107308;1251;70344;-71
2022/01/20 06:38:40;;;;;;;28.50;12.90;;;;;;;-5.03;70.93;100869.29;107438;1248;70887;-69
2022/01/20 06:41:09;;;;;;;29.40;13.40;;;;;;;-5.00;70.66;100869.26;107253;1251;74473;-68
2022/01/20 06:43:38;;;;;;;22.20;10.50;;;;;;;-4.95;70.63;100876.02;107351;1248;61623;-72
2022/01/20 06:46:07;;;;;;;25.10;14.20;;;;;;;-4.91;70.49;100870.39;107372;1251;59570;-72
2022/01/20 06:49:18;;;;;;;30.50;13.30;;;;;;;-4.83;70.69;100878.67;107175;1250;71796;-69
2022/01/20 06:51:58;;;;;;;31.30;13.30;;;;;;;-4.77;70.89;100880.67;107198;1251;69867;-70
2022/01/20 06:54:28;;;;;;;39.40;15.50;;;;;;;-4.69;70.41;100870.77;107543;1248;70470;-71
2022/01/20 06:56:58;;;;;;;34.20;15.80;;;;;;;-4.64;70.40;100863.41;107495;1251;73592;-72
2022/01/20 06:59:27;;;;;;;27.00;13.60;;;;;;;-4.63;69.39;100857.29;107427;1251;59010;-70
2022/01/20 07:01:57;;;;;;;32.40;15.00;;;;;;;-4.61;69.36;100850.30;107339;1251;58986;-72
2022/01/20 07:04:28;;;;;;;39.20;14.70;;;;;;;-4.52;69.35;100849.20;107560;1248;72676;-71
2022/01/20 07:06:59;;;;;;;29.30;15.20;;;;;;;-4.43;69.45;100850.33;107525;1250;69933;-72
2022/01/20 07:09:46;;;;;;;30.50;15.40;;;;;;;-4.32;69.17;100844.44;107387;1251;68701;-72
2022/01/20 07:13:05;;;;;;;30.10;15.10;;;;;;;-4.21;68.40;100832.78;107532;1250;71493;-73
2022/01/20 07:15:35;;;;;;;31.20;16.60;;;;;;;-4.10;68.46;100832.84;107593;1247;59670;-73
2022/01/20 07:18:05;;;;;;;39.00;16.30;;;;;;;-4.00;67.38;100832.55;107691;1248;60659;-69
2022/01/20 07:20:34;;;;;;;36.50;15.00;;;;;;;-3.90;67.55;100823.94;107423;1251;72291;-68
2022/01/20 07:23:53;;;;;;;38.10;15.30;;;;;;;-3.73;66.91;100832.77;107456;1247;72680;-73
2022/01/20 07:26:23;;;;;;;29.50;14.60;;;;;;;-3.60;67.61;100839.41;107572;1248;71021;-71
2022/01/20 07:29:01;;;;;;;33.00;14.80;;;;;;;-3.49;67.85;100829.58;107360;1248;74696;-69
2022/01/20 07:31:30;;;;;;;31.20;14.00;;;;;;;-3.37;66.76;100820.91;107230;1249;60921;-74
2022/01/20 07:33:59;;;;;;;35.70;14.40;;;;;;;-3.25;65.04;100823.64;107303;1250;61360;-69
2022/01/20 07:36:29;;;;;;;37.40;16.70;;;;;;;-3.25;64.75;100824.84;107345;1251;73569;-71
2022/01/20 07:38:58;;;;;;;33.70;16.60;;;;;;;-3.15;65.56;100829.30;107443;1249;73100;-67
2022/01/20 07:41:27;;;;;;;36.10;16.10;;;;;;;-3.04;64.47;100827.10;107427;1249;69057;-69
2022/01/20 07:43:57;;;;;;;30.40;14.10;;;;;;;-2.96;64.40;100827.14;107334;1251;74644;-72
2022/01/20 07:46:44;;;;;;;32.90;13.80;;;;;;;-2.85;64.16;100823.58;107168;1251;59312;-71
2022/01/20 07:49:16;;;;;;;34.00;15.90;;;;;;;-2.79;63.80;100822.79;107178;1248;62274;-73
2022/01/20 07:51:45;;;;;;;40.40;20.90;;;;;;;-2.79;63.94;100822.11;107158;1250;74178;-70
2022/01/20 07:54:15;;;;;;;43.50;22.50;;;;;;;-2.79;63.96;100829.61;107335;1247;72366;-72
2022/01/20 07:56:44;;;;;;;41.40;19.10;;;;;;;-2.74;64.35;100825.96;106957;1249;70856;-72
2022/01/20 07:59:14;;;;;;;49.90;20.00;;;;;;;-2.72;64.26;100825.59;107197;1250;72469;-71
2022/01/20 08:01:45;;;;;;;34.70;17.20;;;;;;;-2.56;64.01;100823.11;107516;1250;59713;-78
2022/01/20 08:04:14;;;;;;;32.20;16.20;;;;;;;-2.49;63.18;100819.40;108619;1247;60866;-79
2022/01/20 08:06:45;;;;;;;27.70;15.70;;;;;;;-2.32;63.53;100815.52;108629;1247;73187;-78
2022/01/20 08:09:17;;;;;;;34.10;17.10;;;;;;;-2.17;63.69;100815.09;108026;1250;69750;-76
2022/01/20 08:12:07;;;;;;;36.60;17.20;;;;;;;-2.01;63.37;100811.55;107644;1248;67909;-80
2022/01/20 08:14:58;;;;;;;27.90;13.20;;;;;;;-1.89;62.57;100812.00;107678;1247;72081;-80
2022/01/20 08:18:10;;;;;;;28.50;15.40;;;;;;;-1.85;61.35;100806.80;107765;1247;59803;-78
2022/01/20 08:20:40;;;;;;;39.50;16.20;;;;;;;-1.76;61.20;100803.38;107318;1251;59739;-77
2022/01/20 08:23:11;;;;;;;40.80;17.10;;;;;;;-1.63;61.50;100804.30;107668;1247;74658;-80
2022/01/20 08:25:40;;;;;;;42.20;17.80;;;;;;;-1.50;60.84;100800.98;107792;1247;72855;-80
2022/01/20 08:28:10;;;;;;;34.80;16.90;;;;;;;-1.38;61.19;100797.29;107841;1250;71044;-80
2022/01/20 08:30:43;;;;;;;28.90;16.00;;;;;;;-1.26;62.15;100796.34;107731;1250;73374;-80
2022/01/20 08:33:14;;;;;;;34.00;17.20;;;;;;;-1.17;61.11;100795.77;108012;1247;59650;-79
2022/01/20 08:35:54;;;;;;;36.30;16.50;;;;;;;-1.05;59.96;100792.11;108070;1247;62790;-75
2022/01/20 08:38:36;;;;;;;37.90;17.30;;;;;;;-0.93;60.04;100793.02;108269;1247;73960;-79
2022/01/20 08:41:06;;;;;;;38.20;17.50;;;;;;;-0.80;60.94;100795.80;108092;1247;73178;-81
2022/01/20 08:43:38;;;;;;;34.90;17.50;;;;;;;-0.68;59.15;100799.95;108265;1247;70804;-79
2022/01/20 08:46:19;;;;;;;34.40;18.10;;;;;;;-0.55;60.07;100803.54;107666;1248;73048;-80
2022/01/20 08:48:49;;;;;;;39.80;18.90;;;;;;;-0.42;60.19;100798.94;107790;1250;59199;-82
2022/01/20 08:51:56;;;;;;;37.00;18.30;;;;;;;-0.25;60.42;100793.86;107981;1250;59745;-81
2022/01/20 08:54:30;;;;;;;49.20;18.60;;;;;;;-0.15;55.98;100796.70;108516;1247;71997;-81
2022/01/20 08:57:08;;;;;;;49.60;20.20;;;;;;;0.00;57.68;100795.95;108153;1250;71949;-78
2022/01/20 08:59:40;;;;;;;45.80;20.10;;;;;;;0.14;56.65;100796.27;108145;1247;70675;-81
2022/01/20 09:02:11;;;;;;;35.70;17.80;;;;;;;0.29;57.23;100799.77;107578;1247;75002;-76
2022/01/20 09:04:43;;;;;;;88.20;23.00;;;;;;;0.43;55.72;100795.94;108130;1247;61607;-77
2022/01/20 09:08:12;;;;;;;48.00;21.90;;;;;;;0.66;54.39;100800.22;109388;1247;58879;-82
2022/01/20 09:10:54;;;;;;;43.50;20.30;;;;;;;0.83;55.21;100794.57;109462;1247;74017;-84
2022/01/20 09:16:22;;;;;;;41.30;19.70;;;;;;;1.02;52.17;100777.16;108670;1247;71322;-89
2022/01/20 09:19:14;;;;;;;44.60;21.60;;;;;;;1.08;53.26;100768.92;108665;1250;70911;-85
2022/01/20 09:21:55;;;;;;;54.90;27.10;;;;;;;1.27;52.65;100770.52;108195;1250;58637;-86
2022/01/20 09:24:26;;;;;;;51.80;25.80;;;;;;;1.38;51.25;100768.11;108285;1247;60439;-87
2022/01/20 09:26:55;;;;;;;48.50;26.30;;;;;;;1.47;51.65;100766.77;108465;1247;71373;-86
2022/01/20 09:29:24;;;;;;;44.90;25.30;;;;;;;1.60;51.15;100761.69;108172;1250;69569;-90
2022/01/20 09:31:54;;;;;;;47.50;25.50;;;;;;;1.72;50.60;100760.23;108172;1250;68239;-88
2022/01/20 09:34:27;;;;;;;47.70;25.40;;;;;;;1.85;51.34;100756.16;108132;1250;71759;-90
2022/01/20 09:36:57;;;;;;;34.60;19.30;;;;;;;1.97;51.67;100757.65;108047;1248;60482;-86
2022/01/20 09:39:27;;;;;;;49.10;22.40;;;;;;;2.02;49.13;100752.67;108608;1250;60021;-89
2022/01/20 09:42:07;;;;;;;42.60;23.60;;;;;;;2.09;49.66;100740.89;108812;1247;73974;-87
2022/01/20 09:44:41;;;;;;;47.80;23.20;;;;;;;2.25;49.76;100738.57;108534;1248;73006;-84
2022/01/20 09:47:12;;;;;;;44.70;23.00;;;;;;;2.39;49.85;100733.25;107568;1251;69816;-86
2022/01/20 09:49:58;;;;;;;38.40;21.20;;;;;;;2.57;50.46;100738.56;107618;1251;72778;-83
2022/01/20 09:52:36;;;;;;;31.30;17.70;;;;;;;2.74;51.20;100742.17;107917;1251;59145;-84
2022/01/20 09:55:35;;;;;;;31.90;16.80;;;;;;;2.92;51.42;100731.32;107838;1248;60697;-88
2022/01/20 09:58:06;;;;;;;28.60;17.30;;;;;;;3.07;51.98;100730.91;108136;1248;74534;-87
2022/01/20 10:00:39;;;;;;;31.00;14.40;;;;;;;3.18;50.90;100725.28;108091;1251;70723;-87
2022/01/20 10:03:19;;;;;;;24.60;12.80;;;;;;;3.31;50.90;100720.60;107949;1250;68697;-88
2022/01/20 10:05:53;;;;;;;21.90;10.20;;;;;;;3.49;49.03;100716.59;108377;1247;73180;-87
2022/01/20 10:08:29;;;;;;;24.60;11.40;;;;;;;3.62;48.70;100714.30;107699;1247;61566;-87
2022/01/20 10:11:13;;;;;;;25.60;13.50;;;;;;;3.72;46.95;100702.81;107782;1247;61060;-87
2022/01/20 10:14:00;;;;;;;23.20;10.40;;;;;;;3.86;48.20;100697.05;107694;1250;72822;-85
2022/01/20 10:17:27;;;;;;;18.10;9.20;;;;;;;3.99;44.21;100689.37;107263;1250;70223;-87
2022/01/20 10:20:05;;;;;;;19.50;11.00;;;;;;;4.12;46.80;100689.48;107363;1251;68885;-86
2022/01/20 10:22:42;;;;;;;20.70;10.10;;;;;;;4.24;47.40;100688.75;107526;1247;74878;-84
2022/01/20 10:25:34;;;;;;;20.50;10.90;;;;;;;4.31;44.78;100679.13;107944;1247;62331;-87
2022/01/20 10:28:10;;;;;;;23.60;11.60;;;;;;;4.39;44.81;100674.43;108287;1247;61366;-86
2022/01/20 10:30:39;;;;;;;21.30;10.00;;;;;;;4.49;45.01;100670.14;107814;1250;73951;-87
2022/01/20 10:33:08;;;;;;;18.70;9.60;;;;;;;4.65;46.42;100668.38;107908;1247;71797;-86
2022/01/20 10:35:40;;;;;;;22.40;10.90;;;;;;;4.81;44.54;100665.65;107609;1248;70940;-83
2022/01/20 10:38:20;;;;;;;24.10;12.00;;;;;;;4.93;42.48;100657.31;107406;1248;74588;-85
2022/01/20 10:40:58;;;;;;;24.90;11.30;;;;;;;5.19;44.78;100660.02;107698;1247;59047;-84
2022/01/20 10:43:46;;;;;;;16.20;8.30;;;;;;;5.55;44.16;100656.91;107370;1250;61617;-81
2022/01/20 10:46:51;;;;;;;18.00;8.30;;;;;;;5.91;43.57;100650.52;107524;1248;73132;-83
2022/01/20 10:49:31;;;;;;;18.20;8.50;;;;;;;6.23;43.01;100641.33;107586;1250;71848;-83
2022/01/20 10:52:07;;;;;;;16.80;8.80;;;;;;;6.51;40.89;100638.91;107467;1251;69195;-86
2022/01/20 10:54:42;;;;;;;13.50;7.60;;;;;;;6.79;39.95;100628.51;107493;1250;71825;-85
2022/01/20 10:57:17;;;;;;;15.40;8.20;;;;;;;6.98;38.54;100633.27;108348;1250;60541;-81
2022/01/20 10:59:52;;;;;;;14.90;8.50;;;;;;;7.03;38.74;100627.63;108608;1250;61052;-83
2022/01/20 11:02:30;;;;;;;15.00;7.20;;;;;;;7.39;36.96;100628.92;108006;1250;70675;-77
2022/01/20 11:04:59;;;;;;;14.50;8.10;;;;;;;7.56;36.30;100619.27;108012;1247;72599;-85
2022/01/20 11:07:29;;;;;;;17.00;8.30;;;;;;;7.57;37.18;100620.24;107809;1250;69390;-85
2022/01/20 11:10:04;;;;;;;17.40;8.30;;;;;;;7.59;37.52;100611.95;107614;1249;71853;-86
2022/01/20 11:13:19;;;;;;;13.50;6.90;;;;;;;7.59;36.69;100613.50;107399;1250;60875;-84
2022/01/20 11:15:52;;;;;;;13.90;8.60;;;;;;;7.81;36.63;100623.05;107502;1249;61678;-86
2022/01/20 11:18:27;;;;;;;15.30;9.10;;;;;;;7.86;36.23;100622.09;107337;1250;72528;-82
2022/01/20 11:20:59;;;;;;;14.50;8.90;;;;;;;7.92;35.60;100617.55;107500;1250;72983;-90
2022/01/20 11:23:42;;;;;;;16.50;9.00;;;;;;;7.86;36.18;100609.77;107752;1249;71637;-89
2022/01/20 11:27:00;;;;;;;13.20;8.40;;;;;;;7.96;35.48;100609.69;107662;1248;74512;-93
2022/01/20 11:30:26;;;;;;;17.10;9.40;;;;;;;8.14;35.13;100599.65;107949;1250;58870;-94
2022/01/20 11:33:16;;;;;;;14.30;9.20;;;;;;;8.14;35.92;100597.06;108285;1248;60043;-92
2022/01/20 11:35:51;;;;;;;17.50;9.10;;;;;;;8.31;35.38;100599.63;108267;1248;73984;-93
2022/01/20 11:38:35;;;;;;;14.30;8.90;;;;;;;8.34;35.16;100598.59;107930;1248;69734;-90
2022/01/20 11:41:05;;;;;;;16.70;9.00;;;;;;;8.42;34.45;100594.92;108203;1247;70912;-93
2022/01/20 11:44:05;;;;;;;14.70;8.30;;;;;;;8.71;35.78;100585.04;108182;1248;74211;-84
2022/01/20 11:46:44;;;;;;;14.40;8.00;;;;;;;8.98;34.43;100585.86;108198;1250;59521;-85
2022/01/20 11:49:16;;;;;;;15.20;7.70;;;;;;;9.08;34.16;100586.52;108378;1249;61349;-92
2022/01/20 11:51:58;;;;;;;15.10;9.00;;;;;;;8.99;34.07;100572.35;108130;1250;74825;-92
2022/01/20 11:54:33;;;;;;;13.90;8.20;;;;;;;9.27;33.83;100567.50;107717;1250;72838;-83
2022/01/20 11:57:11;;;;;;;12.50;7.60;;;;;;;8.97;32.33;100571.84;107781;1247;71128;-85
2022/01/20 11:59:54;;;;;;;14.70;8.70;;;;;;;9.19;33.16;100571.05;107427;1248;75254;-84
2022/01/20 12:02:35;;;;;;;13.20;7.80;;;;;;;8.93;32.73;100568.94;107534;1248;62139;-81
2022/01/20 12:05:29;;;;;;;17.90;7.80;;;;;;;9.42;33.21;100561.11;107320;1251;61055;-87
2022/01/20 12:08:18;;;;;;;15.40;7.40;;;;;;;9.71;32.02;100565.30;107860;1248;70858;-88
2022/01/20 12:11:08;;;;;;;11.80;7.60;;;;;;;9.90;32.20;100556.30;107969;1247;69378;-86
2022/01/20 12:13:55;;;;;;;13.70;7.80;;;;;;;9.50;32.06;100556.36;107662;1249;69150;-85
2022/01/20 12:16:25;;;;;;;15.10;8.50;;;;;;;10.03;32.81;100562.85;107832;1248;73892;-84
2022/01/20 12:18:57;;;;;;;14.00;7.50;;;;;;;9.56;31.23;100559.93;107679;1247;62055;-88
2022/01/20 12:21:32;;;;;;;15.10;8.30;;;;;;;9.90;31.22;100552.59;107718;1248;61914;-85
2022/01/20 12:24:02;;;;;;;14.10;8.40;;;;;;;9.98;31.14;100547.73;107540;1251;72348;-90
2022/01/20 12:26:35;;;;;;;13.20;7.30;;;;;;;10.15;30.72;100545.59;107778;1247;72205;-82
2022/01/20 12:29:07;;;;;;;13.30;7.50;;;;;;;9.99;31.37;100539.81;107630;1248;68434;-85
2022/01/20 12:31:55;;;;;;;13.30;7.90;;;;;;;10.07;31.42;100541.63;107376;1247;72153;-84
2022/01/20 12:34:24;;;;;;;13.70;7.60;;;;;;;10.15;31.02;100537.98;107347;1253;60178;-82
2022/01/20 12:36:59;;;;;;;11.10;7.10;;;;;;;10.26;30.62;100537.52;107803;1247;59386;-86
2022/01/20 12:39:32;;;;;;;15.70;8.50;;;;;;;10.28;31.05;100543.77;107573;1247;73318;-85
2022/01/20 12:42:11;;;;;;;16.60;9.00;;;;;;;10.06;31.19;100548.84;107967;1247;71293;-87
2022/01/20 12:45:55;;;;;;;18.30;10.50;;;;;;;10.24;30.60;100539.39;107992;1250;68396;-87
2022/01/20 12:47:54;;;;;;;18.80;10.60;;;;;;;10.20;31.18;100544.02;107998;1247;72938;-89
2022/01/20 12:50:23;;;;;;;20.10;10.60;;;;;;;10.49;31.80;100543.95;107555;1250;60960;-85
2022/01/20 12:52:53;;;;;;;18.10;10.70;;;;;;;10.46;30.92;100554.14;108077;1245;62011;-84